Time;durP1;ratioP1;P1;durP2;ratioP2;P2;SDS_P1;SDS_P2;PMS_P1;PMS_P2;Temp;Humidity;BMP_temperature;BMP_pressure;BME280_temperature;BME280_humidity;BME280_pressure;Samples;Min_cycle;Max_cycle;Signal;HPM_P1;HPM_P2
2022/03/26 00:02:20;;;;;;;3.07;2.10;;;18.10;76.40;;;;;;5024068;27;98609;-63
2022/03/26 00:04:52;;;;;;;3.28;2.00;;;18.20;76.20;;;;;;5038243;27;95866;-63
2022/03/26 00:07:22;;;;;;;3.95;2.03;;;18.10;76.30;;;;;;5024367;27;95813;-64
2022/03/26 00:09:53;;;;;;;4.47;2.00;;;18.20;76.10;;;;;;5032781;27;95512;-65
2022/03/26 00:12:25;;;;;;;5.05;2.65;;;18.20;76.00;;;;;;5032341;27;96105;-64
2022/03/26 00:14:58;;;;;;;8.27;2.20;;;18.20;76.20;;;;;;5039014;27;95858;-65
2022/03/26 00:17:29;;;;;;;5.95;2.22;;;18.20;76.30;;;;;;5025742;27;95972;-64
2022/03/26 00:20:00;;;;;;;2.10;1.90;;;18.20;76.90;;;;;;5034566;27;95798;-64
2022/03/26 00:22:31;;;;;;;4.35;2.13;;;18.30;76.40;;;;;;5041477;27;95957;-62
2022/03/26 00:25:03;;;;;;;8.80;3.08;;;18.30;76.20;;;;;;5036990;27;96174;-62
2022/03/26 00:27:34;;;;;;;9.02;3.03;;;18.30;76.20;;;;;;5044645;27;96043;-62
2022/03/26 00:30:06;;;;;;;8.60;3.58;;;18.30;76.40;;;;;;5042930;27;95824;-66
2022/03/26 00:32:38;;;;;;;12.88;3.78;;;18.40;77.30;;;;;;5040164;27;95532;-62
2022/03/26 00:35:09;;;;;;;14.38;3.95;;;18.40;76.80;;;;;;5032417;27;95233;-63
2022/03/26 00:37:41;;;;;;;11.13;3.72;;;18.40;76.60;;;;;;5018600;27;95548;-60
2022/03/26 00:40:11;;;;;;;;;;;18.40;76.70;;;;;;5013186;28;95587;-62
2022/03/26 00:42:42;;;;;;;10.33;4.20;;;18.40;76.60;;;;;;5046765;27;95601;-63
2022/03/26 00:45:12;;;;;;;9.53;4.77;;;18.40;76.60;;;;;;5033670;27;96527;-63
2022/03/26 00:47:43;;;;;;;13.57;4.75;;;18.40;76.50;;;;;;5065920;27;102133;-62
2022/03/26 00:50:15;;;;;;;12.00;5.55;;;18.40;76.70;;;;;;5064762;27;95630;-63
2022/03/26 00:52:47;;;;;;;13.13;5.70;;;18.40;76.70;;;;;;5067433;27;95927;-62
2022/03/26 00:55:19;;;;;;;11.50;5.07;;;18.50;76.70;;;;;;5069297;27;95906;-62
2022/03/26 00:57:52;;;;;;;17.38;6.47;;;18.40;76.60;;;;;;5060193;27;95838;-62
2022/03/26 01:00:24;;;;;;;11.10;5.05;;;18.50;76.70;;;;;;5059737;27;95234;-64
2022/03/26 01:02:58;;;;;;;11.90;5.93;;;18.50;76.70;;;;;;5066930;27;95896;-65
2022/03/26 01:05:29;;;;;;;8.25;4.25;;;18.50;76.70;;;;;;5064741;27;95967;-63
2022/03/26 01:07:59;;;;;;;11.45;4.68;;;18.50;76.70;;;;;;5065448;27;95832;-61
2022/03/26 01:10:31;;;;;;;9.40;4.43;;;18.50;76.70;;;;;;5069879;27;95525;-64
2022/03/26 01:13:04;;;;;;;9.60;5.32;;;18.60;76.70;;;;;;5068349;27;95715;-64
2022/03/26 01:15:36;;;;;;;6.70;4.60;;;18.60;76.60;;;;;;5058883;27;96522;-64
2022/03/26 01:18:07;;;;;;;13.48;4.75;;;18.60;76.70;;;;;;5070119;27;96021;-63
2022/03/26 01:20:37;;;;;;;14.43;5.78;;;18.60;76.50;;;;;;5071272;27;95974;-63
2022/03/26 01:23:09;;;;;;;7.13;4.50;;;18.70;76.40;;;;;;5067850;27;95680;-64
2022/03/26 01:25:40;;;;;;;8.70;4.30;;;18.70;76.40;;;;;;5058135;27;95856;-64
2022/03/26 01:28:11;;;;;;;;;;;18.70;76.30;;;;;;5041478;27;95789;-64
2022/03/26 01:30:42;;;;;;;8.52;4.57;;;18.70;76.20;;;;;;5065427;27;95762;-63
2022/03/26 01:33:12;;;;;;;9.80;5.18;;;18.80;76.30;;;;;;5064347;27;95756;-64
2022/03/26 01:35:42;;;;;;;8.40;5.13;;;18.80;76.10;;;;;;5071215;27;95850;-63
2022/03/26 01:38:12;;;;;;;10.73;5.22;;;18.90;76.10;;;;;;5068073;27;95917;-63
2022/03/26 01:40:42;;;;;;;8.57;4.38;;;18.90;76.10;;;;;;5067420;27;95347;-64
2022/03/26 01:43:14;;;;;;;8.52;4.45;;;18.90;76.00;;;;;;5065857;27;95740;-64
2022/03/26 01:45:45;;;;;;;7.97;4.45;;;19.00;76.00;;;;;;5060530;27;97090;-63
2022/03/26 01:48:15;;;;;;;9.65;4.68;;;19.00;75.90;;;;;;5049857;27;95859;-63
2022/03/26 01:50:46;;;;;;;7.43;4.97;;;19.00;75.90;;;;;;5050826;27;95806;-63
2022/03/26 01:53:17;;;;;;;8.30;4.10;;;19.10;75.90;;;;;;5050642;27;95568;-64
2022/03/26 01:55:51;;;;;;;7.13;3.90;;;19.10;75.80;;;;;;5049936;27;95888;-63
2022/03/26 01:58:22;;;;;;;5.32;4.07;;;19.20;75.90;;;;;;5049603;27;97443;-62
2022/03/26 02:00:53;;;;;;;7.32;4.38;;;19.20;75.80;;;;;;5044199;27;95911;-64
2022/03/26 02:03:25;;;;;;;6.65;4.50;;;19.20;75.70;;;;;;5069249;27;97758;-62
2022/03/26 02:05:59;;;;;;;;;;;19.30;75.70;;;;;;5062902;27;3271975;-63
2022/03/26 02:08:31;;;;;;;5.55;4.22;;;19.30;75.60;;;;;;5072620;27;95659;-62
2022/03/26 02:11:05;;;;;;;7.38;4.32;;;19.30;75.60;;;;;;5066005;27;95238;-61
2022/03/26 02:13:56;;;;;;;7.95;4.32;;;19.40;75.70;;;;;;5069419;27;95912;-62
2022/03/26 02:16:27;;;;;;;5.78;4.13;;;19.40;75.50;;;;;;5053757;27;95303;-62
2022/03/26 02:18:59;;;;;;;6.85;4.13;;;19.40;75.40;;;;;;5047143;27;95676;-62
2022/03/26 02:21:29;;;;;;;6.75;4.20;;;19.50;75.50;;;;;;5050999;27;95764;-62
2022/03/26 02:23:59;;;;;;;5.03;4.50;;;19.50;75.40;;;;;;5045887;27;96207;-63
2022/03/26 02:26:31;;;;;;;5.82;3.83;;;19.60;75.40;;;;;;5013735;27;95959;-60
2022/03/26 02:29:09;;;;;;;3.97;3.53;;;19.60;75.30;;;;;;5046944;27;95656;-62
2022/03/26 02:31:40;;;;;;;6.15;3.53;;;19.70;75.30;;;;;;5037582;27;95390;-62
2022/03/26 02:34:12;;;;;;;4.95;4.00;;;19.70;75.10;;;;;;5047158;27;95941;-60
2022/03/26 02:36:42;;;;;;;7.35;4.03;;;19.70;75.10;;;;;;5045415;27;96209;-62
2022/03/26 02:39:14;;;;;;;8.80;3.47;;;19.80;75.00;;;;;;5050685;27;95661;-62
2022/03/26 02:41:45;;;;;;;5.45;4.15;;;19.80;74.90;;;;;;5050467;27;96080;-60
2022/03/26 02:44:17;;;;;;;5.63;3.53;;;19.90;74.90;;;;;;5044691;27;95808;-60
2022/03/26 02:46:47;;;;;;;4.70;3.65;;;19.90;74.80;;;;;;5040468;27;95400;-63
2022/03/26 02:49:18;;;;;;;8.25;3.72;;;20.00;74.80;;;;;;5049895;27;95815;-63
2022/03/26 02:51:49;;;;;;;4.65;3.85;;;20.00;74.70;;;;;;5047491;27;96393;-61
2022/03/26 02:54:20;;;;;;;4.15;3.50;;;20.10;74.70;;;;;;5049475;27;95874;-60
2022/03/26 02:56:53;;;;;;;5.40;3.67;;;20.10;74.60;;;;;;5049244;27;96023;-61
2022/03/26 02:59:25;;;;;;;6.35;3.85;;;20.10;74.50;;;;;;5049629;27;97757;-61
2022/03/26 03:01:56;;;;;;;5.45;3.83;;;20.20;74.50;;;;;;5036941;27;95961;-62
2022/03/26 03:04:34;;;;;;;3.38;3.05;;;20.20;74.50;;;;;;5025096;27;97381;-61
2022/03/26 03:07:05;;;;;;;4.15;3.03;;;20.20;74.40;;;;;;5029052;27;95952;-61
2022/03/26 03:09:36;;;;;;;3.45;3.15;;;20.30;74.40;;;;;;5046619;27;95789;-61
2022/03/26 03:12:09;;;;;;;5.95;3.45;;;20.30;74.20;;;;;;5046289;27;95456;-61
2022/03/26 03:14:41;;;;;;;3.78;3.00;;;20.40;74.20;;;;;;5049033;27;97946;-61
2022/03/26 03:17:12;;;;;;;6.00;3.55;;;20.40;74.10;;;;;;5018477;27;95467;-61
2022/03/26 03:19:43;;;;;;;4.40;3.08;;;20.50;74.10;;;;;;5049835;27;95745;-63
2022/03/26 03:22:13;;;;;;;3.75;3.22;;;20.50;74.00;;;;;;5030986;27;95746;-61
2022/03/26 03:24:45;;;;;;;4.82;3.45;;;20.50;74.00;;;;;;5042985;27;96646;-61
2022/03/26 03:27:17;;;;;;;4.63;3.08;;;20.50;73.90;;;;;;5040103;27;95875;-61
2022/03/26 03:29:49;;;;;;;4.82;3.83;;;20.60;73.90;;;;;;5048816;27;95684;-61
2022/03/26 03:32:20;;;;;;;6.20;3.17;;;20.60;73.80;;;;;;5035509;27;95213;-61
2022/03/26 03:34:50;;;;;;;4.53;3.33;;;20.70;73.80;;;;;;5046153;27;98419;-61
2022/03/26 03:37:20;;;;;;;4.85;3.40;;;20.70;73.70;;;;;;5045624;27;95683;-62
2022/03/26 03:39:51;;;;;;;4.88;3.58;;;20.80;73.60;;;;;;5048450;27;96012;-62
2022/03/26 03:42:22;;;;;;;3.22;2.72;;;20.80;74.20;;;;;;5028971;27;95913;-63
2022/03/26 03:44:52;;;;;;;4.30;3.15;;;20.90;73.50;;;;;;5045906;27;97485;-61
2022/03/26 03:47:23;;;;;;;3.30;2.80;;;20.90;73.50;;;;;;5032095;27;96689;-64
2022/03/26 03:49:55;;;;;;;4.75;3.10;;;20.90;73.40;;;;;;5048440;27;95760;-61
2022/03/26 03:52:27;;;;;;;2.72;2.53;;;21.00;73.50;;;;;;5028804;27;95845;-61
2022/03/26 03:54:57;;;;;;;4.13;3.20;;;21.00;73.30;;;;;;5044894;27;95871;-64
2022/03/26 03:57:28;;;;;;;5.15;3.58;;;21.10;73.30;;;;;;5047542;27;95351;-63
2022/03/26 03:59:58;;;;;;;;;;;21.10;73.30;;;;;;5045840;27;98401;-61
2022/03/26 04:02:31;;;;;;;4.03;2.95;;;21.10;73.20;;;;;;5034141;27;95869;-62
2022/03/26 04:05:03;;;;;;;3.75;3.03;;;21.10;73.20;;;;;;5048252;27;95848;-63
2022/03/26 04:07:34;;;;;;;3.53;3.08;;;21.20;73.10;;;;;;5030745;27;98485;-61
2022/03/26 04:10:07;;;;;;;;;;;21.20;73.10;;;;;;5049020;27;95042;-61
2022/03/26 04:12:42;;;;;;;3.20;2.90;;;21.20;73.10;;;;;;5032576;27;95463;-61
2022/03/26 04:15:15;;;;;;;3.08;2.83;;;21.20;73.00;;;;;;5038951;27;97083;-61
2022/03/26 04:17:47;;;;;;;4.15;3.20;;;21.30;72.90;;;;;;5066385;27;95776;-61
2022/03/26 04:20:18;;;;;;;3.45;3.15;;;21.30;72.90;;;;;;5049666;27;96067;-61
2022/03/26 04:22:48;;;;;;;4.30;2.67;;;21.30;72.90;;;;;;5047092;27;95686;-63
2022/03/26 04:25:19;;;;;;;;;;;21.40;72.90;;;;;;5059454;27;96100;-61
2022/03/26 04:27:49;;;;;;;3.25;2.90;;;21.40;72.80;;;;;;5060986;27;95442;-64
2022/03/26 04:30:21;;;;;;;5.07;3.03;;;21.40;72.70;;;;;;5058924;27;95322;-63
2022/03/26 04:32:51;;;;;;;3.40;3.10;;;21.50;72.80;;;;;;5066719;27;95881;-61
2022/03/26 04:35:20;;;;;;;3.00;2.70;;;21.50;72.70;;;;;;5060208;27;95923;-60
2022/03/26 04:37:55;;;;;;;6.00;3.03;;;21.50;72.60;;;;;;5067738;27;95702;-63
2022/03/26 04:40:28;;;;;;;3.42;3.08;;;21.60;72.70;;;;;;5063682;27;95774;-63
2022/03/26 04:42:59;;;;;;;3.17;2.47;;;21.60;72.60;;;;;;5067774;27;95574;-63
2022/03/26 04:45:31;;;;;;;3.20;2.90;;;21.60;72.50;;;;;;5041074;27;95923;-64
2022/03/26 04:48:01;;;;;;;2.92;2.70;;;21.70;72.60;;;;;;5045199;27;103753;-60
2022/03/26 04:50:32;;;;;;;2.80;2.60;;;21.70;72.50;;;;;;5068088;27;96064;-61
2022/03/26 04:53:03;;;;;;;2.95;2.65;;;21.70;72.50;;;;;;5066009;27;95971;-59
2022/03/26 04:55:35;;;;;;;3.78;2.80;;;21.70;72.40;;;;;;5060039;27;95895;-62
2022/03/26 04:58:08;;;;;;;4.18;3.47;;;21.80;72.40;;;;;;5063628;27;95744;-60
2022/03/26 05:00:40;;;;;;;3.00;2.60;;;21.80;72.30;;;;;;5059913;27;99602;-59
2022/03/26 05:03:11;;;;;;;3.75;3.10;;;21.80;72.60;;;;;;5071878;27;95928;-60
2022/03/26 05:05:43;;;;;;;4.30;3.15;;;21.80;72.20;;;;;;5046480;27;98695;-63
2022/03/26 05:08:13;;;;;;;2.72;2.53;;;21.90;72.20;;;;;;5071272;27;95885;-61
2022/03/26 05:10:45;;;;;;;3.65;3.30;;;21.90;72.20;;;;;;5073572;27;95986;-63
2022/03/26 05:13:16;;;;;;;3.47;3.17;;;22.00;72.20;;;;;;5069423;27;95251;-63
2022/03/26 05:15:47;;;;;;;;;;;22.00;72.10;;;;;;5054508;27;98339;-60
2022/03/26 05:18:20;;;;;;;5.30;3.50;;;22.00;72.10;;;;;;5051934;27;95971;-60
2022/03/26 05:20:50;;;;;;;3.30;3.00;;;22.00;72.00;;;;;;5029687;27;96207;-60
2022/03/26 05:23:21;;;;;;;3.08;2.80;;;22.00;72.00;;;;;;5028783;27;95517;-60
2022/03/26 05:25:52;;;;;;;3.50;3.03;;;22.10;72.00;;;;;;5037223;27;96890;-63
2022/03/26 05:28:23;;;;;;;3.03;2.72;;;22.10;72.00;;;;;;5028219;27;95558;-62
2022/03/26 05:30:54;;;;;;;3.42;2.83;;;22.10;71.90;;;;;;5021169;27;97983;-60
2022/03/26 05:33:24;;;;;;;3.95;3.63;;;22.20;71.90;;;;;;5031476;27;95782;-63
2022/03/26 05:35:54;;;;;;;3.20;2.95;;;22.20;71.90;;;;;;5032417;27;98033;-63
2022/03/26 05:38:25;;;;;;;3.33;3.03;;;22.20;71.90;;;;;;5048372;27;95894;-61
2022/03/26 05:40:55;;;;;;;3.43;3.00;;;22.20;71.80;;;;;;5050334;27;95798;-63
2022/03/26 05:43:26;;;;;;;;;;;22.30;72.30;;;;;;5049889;27;98091;-63
2022/03/26 05:45:56;;;;;;;3.38;2.92;;;22.30;71.80;;;;;;5042803;27;96450;-61
2022/03/26 05:48:26;;;;;;;3.15;2.92;;;22.30;71.80;;;;;;5039821;27;95764;-63
2022/03/26 05:50:57;;;;;;;3.17;2.83;;;22.30;71.80;;;;;;5035254;27;95616;-61
2022/03/26 05:53:28;;;;;;;3.22;2.92;;;22.40;71.80;;;;;;5035626;27;95824;-59
2022/03/26 05:55:59;;;;;;;3.50;2.75;;;22.40;71.80;;;;;;5038825;27;98662;-65
2022/03/26 05:58:30;;;;;;;3.95;3.25;;;22.40;71.70;;;;;;5020026;27;95747;-59
2022/03/26 06:01:01;;;;;;;2.90;2.53;;;22.40;71.60;;;;;;5024663;27;95890;-59
2022/03/26 06:03:32;;;;;;;2.97;2.65;;;22.40;71.60;;;;;;5033095;27;95999;-63
2022/03/26 06:06:04;;;;;;;3.08;2.78;;;22.50;71.60;;;;;;5041599;27;98286;-63
2022/03/26 06:08:35;;;;;;;3.10;2.80;;;22.50;71.60;;;;;;5032056;27;95389;-63
2022/03/26 06:11:05;;;;;;;3.03;2.83;;;22.50;71.60;;;;;;5030158;27;95543;-63
2022/03/26 06:13:36;;;;;;;8.38;3.10;;;22.50;72.20;;;;;;5043828;27;95778;-63
2022/03/26 06:16:07;;;;;;;3.50;3.20;;;22.60;71.50;;;;;;5028055;27;96477;-63
2022/03/26 06:18:38;;;;;;;3.80;3.22;;;22.50;71.50;;;;;;5032056;27;95340;-62
2022/03/26 06:21:08;;;;;;;3.17;2.70;;;22.60;71.50;;;;;;5043057;27;95970;-61
2022/03/26 06:23:38;;;;;;;3.75;3.45;;;22.60;71.50;;;;;;5044461;27;95719;-62
2022/03/26 06:26:10;;;;;;;3.17;2.70;;;22.60;71.40;;;;;;5040587;27;95961;-63
2022/03/26 06:28:42;;;;;;;3.20;2.90;;;22.60;71.40;;;;;;5043921;27;95543;-63
2022/03/26 06:31:15;;;;;;;2.97;2.78;;;22.60;71.40;;;;;;5033379;27;95992;-63
2022/03/26 06:33:45;;;;;;;3.13;2.85;;;22.60;71.40;;;;;;5044054;27;95242;-63
2022/03/26 06:36:16;;;;;;;3.57;3.13;;;22.70;71.40;;;;;;5048778;27;96294;-63
2022/03/26 06:38:46;;;;;;;3.27;2.97;;;22.70;71.40;;;;;;5029654;27;95805;-62
2022/03/26 06:41:16;;;;;;;;;;;22.70;71.40;;;;;;5040346;27;95371;-63
2022/03/26 06:43:47;;;;;;;3.40;3.10;;;22.70;71.40;;;;;;5035928;27;96101;-62
2022/03/26 06:46:18;;;;;;;3.72;3.42;;;22.70;71.40;;;;;;5031907;27;98585;-64
2022/03/26 06:48:49;;;;;;;3.50;3.20;;;22.70;71.30;;;;;;5038626;27;95831;-60
2022/03/26 06:51:20;;;;;;;3.08;2.88;;;22.70;71.20;;;;;;5044854;27;97726;-63
2022/03/26 06:53:51;;;;;;;4.80;3.20;;;22.80;71.30;;;;;;5026538;27;95497;-62
2022/03/26 06:56:22;;;;;;;3.70;3.40;;;22.80;71.30;;;;;;5029361;27;95595;-63
2022/03/26 06:58:53;;;;;;;;;;;22.80;71.20;;;;;;5042672;27;95750;-61
2022/03/26 07:01:24;;;;;;;3.60;3.30;;;22.80;71.30;;;;;;5035214;27;95846;-64
2022/03/26 07:03:58;;;;;;;3.03;2.75;;;22.80;71.30;;;;;;5039170;27;96101;-63
2022/03/26 07:06:29;;;;;;;3.53;3.15;;;22.80;71.20;;;;;;5043797;27;96429;-63
2022/03/26 07:09:00;;;;;;;3.38;2.83;;;22.80;71.20;;;;;;5021177;27;95625;-63
2022/03/26 07:11:30;;;;;;;3.28;2.90;;;22.80;71.20;;;;;;5037070;27;95727;-63
2022/03/26 07:14:01;;;;;;;;;;;22.80;71.20;;;;;;5038161;27;97779;-63
2022/03/26 07:16:32;;;;;;;3.30;3.00;;;22.80;71.20;;;;;;5026336;27;95929;-63
2022/03/26 07:19:03;;;;;;;3.55;3.25;;;22.90;71.20;;;;;;5038590;27;95963;-63
2022/03/26 07:21:34;;;;;;;6.15;3.30;;;22.90;71.20;;;;;;5036648;27;96091;-62
2022/03/26 07:24:06;;;;;;;3.15;2.72;;;22.90;71.20;;;;;;5042173;27;95460;-63
2022/03/26 07:26:40;;;;;;;3.53;2.83;;;22.80;71.10;;;;;;5043054;27;96586;-62
2022/03/26 07:29:11;;;;;;;3.40;3.08;;;22.90;71.10;;;;;;5031232;27;96545;-62
2022/03/26 07:31:48;;;;;;;3.47;2.83;;;22.90;71.10;;;;;;5036596;27;95634;-62
2022/03/26 07:34:19;;;;;;;3.50;3.20;;;22.90;71.10;;;;;;5046555;27;95362;-62
2022/03/26 07:36:50;;;;;;;5.35;3.40;;;22.90;71.30;;;;;;5032968;27;95913;-62
2022/03/26 07:39:25;;;;;;;2.90;2.70;;;22.80;71.10;;;;;;5032057;27;95526;-60
2022/03/26 07:41:56;;;;;;;12.77;3.75;;;22.90;71.20;;;;;;5032341;27;95791;-60
2022/03/26 07:44:26;;;;;;;;;;;22.90;71.50;;;;;;5034598;27;95666;-61
2022/03/26 07:46:56;;;;;;;7.28;3.55;;;22.90;71.30;;;;;;5043228;27;96494;-61
2022/03/26 07:49:27;;;;;;;;;;;22.80;71.10;;;;;;5032699;27;95826;-66
2022/03/26 07:51:58;;;;;;;6.07;4.65;;;22.80;69.80;;;;;;5042019;27;95428;-64
2022/03/26 07:54:29;;;;;;;8.45;4.55;;;22.70;68.60;;;;;;5038514;27;95737;-64
2022/03/26 07:57:00;;;;;;;6.25;4.63;;;22.50;68.60;;;;;;5036157;27;96782;-65
2022/03/26 07:59:30;;;;;;;8.68;4.50;;;22.50;70.50;;;;;;5035837;27;95905;-65
2022/03/26 08:02:01;;;;;;;8.13;5.10;;;22.50;69.90;;;;;;5026730;27;97729;-63
2022/03/26 08:04:35;;;;;;;7.55;4.97;;;22.50;69.60;;;;;;5038227;27;96020;-64
2022/03/26 08:07:06;;;;;;;29.38;6.40;;;22.50;68.80;;;;;;5023450;27;95799;-64
2022/03/26 08:09:38;;;;;;;23.02;5.45;;;22.40;69.30;;;;;;5032283;27;95852;-64
2022/03/26 08:12:10;;;;;;;20.38;5.63;;;22.30;69.20;;;;;;5055549;27;95706;-65
2022/03/26 08:14:42;;;;;;;8.57;4.78;;;22.20;69.20;;;;;;5039402;27;95333;-63
2022/03/26 08:17:13;;;;;;;14.60;4.68;;;22.10;69.40;;;;;;5048024;27;98585;-63
2022/03/26 08:19:43;;;;;;;8.87;5.43;;;22.00;69.00;;;;;;5045607;27;96132;-65
2022/03/26 08:22:14;;;;;;;6.38;4.93;;;21.90;69.70;;;;;;5049361;27;95488;-65
2022/03/26 08:24:44;;;;;;;7.30;4.78;;;21.90;69.50;;;;;;5033094;27;95787;-65
2022/03/26 08:27:15;;;;;;;9.20;4.93;;;21.70;69.80;;;;;;5033397;27;97216;-63
2022/03/26 08:29:48;;;;;;;7.18;5.20;;;21.50;69.80;;;;;;5037044;27;96125;-64
2022/03/26 08:32:19;;;;;;;5.68;4.13;;;21.50;70.30;;;;;;5051160;27;95800;-65
2022/03/26 08:34:49;;;;;;;10.98;5.22;;;21.50;70.10;;;;;;5040813;27;95992;-63
2022/03/26 08:37:20;;;;;;;8.77;5.60;;;21.50;70.30;;;;;;5064614;27;95827;-64
2022/03/26 08:39:51;;;;;;;6.68;5.60;;;21.40;70.30;;;;;;5062567;27;95950;-65
2022/03/26 08:42:24;;;;;;;7.40;5.65;;;21.40;70.00;;;;;;5068928;27;95990;-64
2022/03/26 08:44:54;;;;;;;10.30;5.57;;;21.20;70.10;;;;;;5067948;27;95656;-66
2022/03/26 08:47:25;;;;;;;16.73;6.80;;;21.20;70.60;;;;;;5043962;27;97550;-65
2022/03/26 08:49:57;;;;;;;40.90;7.93;;;21.20;70.80;;;;;;5044418;27;96372;-66
2022/03/26 08:52:28;;;;;;;21.05;5.63;;;21.10;70.50;;;;;;5071026;27;95313;-65
2022/03/26 08:54:58;;;;;;;32.80;7.15;;;21.10;71.10;;;;;;5066461;27;95786;-64
2022/03/26 08:57:28;;;;;;;14.18;6.60;;;21.20;70.40;;;;;;5065082;27;98581;-65
2022/03/26 09:00:00;;;;;;;11.00;5.45;;;21.10;70.40;;;;;;5047220;27;95910;-64
2022/03/26 09:02:31;;;;;;;;;;;21.00;70.60;;;;;;5043532;27;96086;-65
2022/03/26 09:05:04;;;;;;;9.07;5.22;;;20.90;70.80;;;;;;5067445;27;95310;-63
2022/03/26 09:07:34;;;;;;;6.85;5.07;;;20.80;70.90;;;;;;5068539;27;95983;-64
2022/03/26 09:10:05;;;;;;;;;;;20.80;70.80;;;;;;5067215;27;95830;-65
2022/03/26 09:12:38;;;;;;;12.90;6.68;;;20.70;71.00;;;;;;5073324;27;96149;-64
2022/03/26 09:15:10;;;;;;;8.65;5.47;;;20.50;71.50;;;;;;5061640;27;95802;-63
2022/03/26 09:17:41;;;;;;;10.30;6.63;;;20.30;72.50;;;;;;5068031;27;102095;-64
2022/03/26 09:20:12;;;;;;;;;;;20.20;73.20;;;;;;5061221;27;96574;-64
2022/03/26 09:22:43;;;;;;;9.57;6.57;;;19.90;73.70;;;;;;5057132;27;95398;-64
2022/03/26 09:25:17;;;;;;;8.02;6.07;;;19.70;74.00;;;;;;5056655;27;95307;-63
2022/03/26 09:27:50;;;;;;;14.40;6.65;;;19.60;75.60;;;;;;5057297;27;96535;-63
2022/03/26 09:30:21;;;;;;;11.05;6.22;;;19.40;75.10;;;;;;5052855;27;95801;-63
2022/03/26 09:32:51;;;;;;;9.60;5.78;;;19.50;75.30;;;;;;5047179;27;95984;-64
2022/03/26 09:35:21;;;;;;;11.45;5.72;;;19.30;75.60;;;;;;5066548;27;95735;-63
2022/03/26 09:37:51;;;;;;;8.45;5.63;;;19.20;76.70;;;;;;5048704;27;96097;-63
2022/03/26 09:40:22;;;;;;;9.07;6.18;;;19.60;76.60;;;;;;5066372;27;95464;-63
2022/03/26 09:42:54;;;;;;;14.35;6.03;;;19.60;75.20;;;;;;5070587;27;95624;-62
2022/03/26 09:45:24;;;;;;;10.27;6.47;;;19.30;75.70;;;;;;5046992;27;96174;-64
2022/03/26 09:47:55;;;;;;;12.47;6.40;;;19.20;77.10;;;;;;5062886;27;102238;-65
2022/03/26 09:50:27;;;;;;;10.57;6.22;;;19.30;76.00;;;;;;5064090;27;95432;-64
2022/03/26 09:52:57;;;;;;;25.63;6.60;;;19.30;76.60;;;;;;5045674;27;95341;-63
2022/03/26 09:55:28;;;;;;;16.67;6.32;;;19.10;76.30;;;;;;5064498;27;95639;-64
2022/03/26 09:58:02;;;;;;;17.65;6.25;;;18.70;77.60;;;;;;5057749;27;96795;-64
2022/03/26 10:00:33;;;;;;;11.63;6.82;;;18.90;77.20;;;;;;5038599;27;97627;-66
2022/03/26 10:03:07;;;;;;;11.40;7.82;;;18.70;78.10;;;;;;5063179;27;95862;-64
2022/03/26 10:05:39;;;;;;;18.00;8.23;;;18.60;78.70;;;;;;5066254;27;95921;-63
2022/03/26 10:08:24;;;;;;;11.88;7.32;;;18.50;78.70;;;;;;5065421;27;95903;-64
2022/03/26 10:10:55;;;;;;;11.48;7.15;;;18.30;79.90;;;;;;5070504;27;95721;-64
2022/03/26 10:13:38;;;;;;;12.15;7.40;;;18.50;79.40;;;;;;5027502;27;95283;-63
2022/03/26 10:16:17;;;;;;;11.68;5.97;;;18.40;80.10;;;;;;5038852;27;95508;-64
2022/03/26 10:18:50;;;;;;;11.10;7.40;;;18.70;78.90;;;;;;5038687;27;95855;-65
2022/03/26 10:21:24;;;;;;;18.63;8.43;;;18.30;79.60;;;;;;5068285;27;95368;-64
2022/03/26 10:23:55;;;;;;;10.57;7.97;;;18.10;81.30;;;;;;5065330;27;95963;-64
2022/03/26 10:26:28;;;;;;;16.50;8.98;;;18.30;80.40;;;;;;5055377;27;95789;-65
2022/03/26 10:28:59;;;;;;;13.27;8.15;;;18.00;80.80;;;;;;5065024;27;96458;-64
2022/03/26 10:34:21;;;;;;;18.25;9.27;;;17.20;84.80;;;;;;5064523;27;96143;-65
2022/03/26 10:36:57;;;;;;;12.60;8.88;;;17.10;85.20;;;;;;5064019;27;95663;-65
2022/03/26 10:39:30;;;;;;;17.65;9.95;;;17.60;84.60;;;;;;5044987;27;98290;-65
2022/03/26 10:42:02;;;;;;;12.20;8.73;;;17.80;82.70;;;;;;5051473;27;97279;-65
2022/03/26 10:44:33;;;;;;;18.92;9.85;;;17.80;82.80;;;;;;5068677;27;95912;-64
2022/03/26 10:47:04;;;;;;;12.55;8.18;;;18.10;82.60;;;;;;5060765;27;98547;-70
2022/03/26 10:49:38;;;;;;;10.07;7.43;;;18.60;81.20;;;;;;5053529;27;97863;-67
2022/03/26 10:52:16;;;;;;;17.77;8.23;;;18.80;80.50;;;;;;5069828;27;95623;-66
2022/03/26 10:54:47;;;;;;;9.50;7.80;;;19.00;79.90;;;;;;5068412;27;95604;-65
2022/03/26 10:57:24;;;;;;;10.25;7.40;;;19.10;79.40;;;;;;5068664;27;95970;-63
2022/03/26 10:59:57;;;;;;;9.68;7.95;;;19.30;79.00;;;;;;5065511;27;95911;-64
2022/03/26 11:02:27;;;;;;;9.95;6.60;;;19.40;78.70;;;;;;5056829;27;95800;-63
2022/03/26 11:05:02;;;;;;;10.52;6.60;;;19.50;78.30;;;;;;5069921;27;95922;-64
2022/03/26 11:07:35;;;;;;;10.30;7.25;;;19.60;78.00;;;;;;5054592;27;95758;-65
2022/03/26 11:10:09;;;;;;;9.88;7.10;;;19.60;77.90;;;;;;5051703;27;97266;-65
2022/03/26 11:12:45;;;;;;;11.48;7.25;;;19.70;77.50;;;;;;5066578;27;96002;-64
2022/03/26 11:15:21;;;;;;;11.55;7.35;;;19.70;77.30;;;;;;5049690;27;96431;-66
2022/03/26 11:18:13;;;;;;;9.23;7.05;;;19.80;77.20;;;;;;5060124;27;96298;-66
2022/03/26 11:21:22;;;;;;;10.25;7.75;;;19.90;77.00;;;;;;5044002;27;96121;-66
2022/03/26 11:24:06;;;;;;;10.07;7.50;;;20.00;76.60;;;;;;5036726;27;96119;-67
2022/03/26 11:27:00;;;;;;;7.72;6.72;;;20.10;76.40;;;;;;5041462;27;96025;-65
2022/03/26 11:30:15;;;;;;;9.27;7.53;;;20.10;76.10;;;;;;5054369;27;95988;-66
2022/03/26 11:32:47;;;;;;;9.88;6.95;;;20.20;76.20;;;;;;5037477;27;96211;-65
2022/03/26 11:35:19;;;;;;;7.47;6.78;;;20.20;75.80;;;;;;5040660;27;97300;-66
2022/03/26 11:37:54;;;;;;;;;;;20.20;75.70;;;;;;5062413;27;95812;-66
2022/03/26 11:40:55;;;;;;;9.13;7.15;;;20.30;75.40;;;;;;5064817;27;96057;-66
2022/03/26 11:43:56;;;;;;;9.63;7.22;;;20.30;75.30;;;;;;5042785;27;96103;-66
2022/03/26 11:52:20;;;;;;;7.18;5.78;;;20.40;74.90;;;;;;5036198;27;95957;-65
2022/03/26 11:55:00;;;;;;;7.38;5.97;;;20.50;74.70;;;;;;5036959;27;96505;-65
2022/03/26 11:57:31;;;;;;;8.13;5.80;;;20.50;74.70;;;;;;5035794;27;96198;-65
2022/03/26 12:00:03;;;;;;;7.95;6.88;;;20.50;74.60;;;;;;5038714;27;95371;-66
2022/03/26 12:02:52;;;;;;;7.18;6.50;;;20.60;74.50;;;;;;5040006;27;95925;-70
2022/03/26 12:08:15;;;;;;;8.93;6.30;;;20.60;74.10;;;;;;5054136;27;96525;-65
2022/03/26 12:10:48;;;;;;;8.68;7.05;;;20.60;74.00;;;;;;5047853;27;95787;-70
2022/03/26 12:13:23;;;;;;;9.55;6.63;;;20.60;73.90;;;;;;5067138;27;96018;-65
2022/03/26 12:16:05;;;;;;;7.45;6.68;;;20.60;73.90;;;;;;5038023;27;96105;-64
2022/03/26 12:18:38;;;;;;;7.80;5.78;;;20.70;73.90;;;;;;5035488;27;95818;-65
2022/03/26 12:21:24;;;;;;;8.82;6.43;;;20.70;73.90;;;;;;5039001;27;95309;-71
2022/03/26 12:23:55;;;;;;;8.38;6.25;;;20.60;73.80;;;;;;5038701;27;95569;-65
2022/03/26 12:26:27;;;;;;;;;;;20.70;73.80;;;;;;5029528;27;97556;-65
2022/03/26 12:29:02;;;;;;;10.70;6.05;;;20.70;73.80;;;;;;5044214;27;95778;-65
2022/03/26 12:31:33;;;;;;;7.35;6.05;;;20.60;73.70;;;;;;5021464;27;97413;-65
2022/03/26 12:34:03;;;;;;;6.32;5.72;;;20.60;73.80;;;;;;5041669;27;96128;-64
2022/03/26 12:36:35;;;;;;;6.55;5.85;;;20.60;73.90;;;;;;5019473;27;97404;-70
2022/03/26 12:39:06;;;;;;;7.45;5.82;;;20.60;73.90;;;;;;5042960;27;95302;-70
2022/03/26 12:41:36;;;;;;;9.18;5.95;;;20.60;73.90;;;;;;5036981;27;96392;-65
2022/03/26 12:44:07;;;;;;;7.75;6.30;;;20.60;73.90;;;;;;5041620;27;95924;-70
2022/03/26 12:46:39;;;;;;;6.60;5.97;;;20.60;73.80;;;;;;5042201;27;97928;-71
2022/03/26 12:49:19;;;;;;;9.35;6.18;;;20.60;73.90;;;;;;5058806;27;95703;-70
2022/03/26 12:51:53;;;;;;;7.05;6.32;;;20.60;73.80;;;;;;5043061;27;95882;-64
2022/03/26 12:54:24;;;;;;;9.05;5.95;;;20.60;73.70;;;;;;5040788;27;95786;-70
2022/03/26 12:56:55;;;;;;;6.90;5.75;;;20.60;73.60;;;;;;5042271;27;98607;-65
2022/03/26 12:59:26;;;;;;;8.88;6.10;;;20.50;73.60;;;;;;5039035;27;95878;-65
2022/03/26 13:01:59;;;;;;;7.53;5.83;;;20.50;73.60;;;;;;5049307;27;96232;-70
2022/03/26 13:04:37;;;;;;;7.72;6.50;;;20.50;73.60;;;;;;5058226;27;96582;-70
2022/03/26 13:07:07;;;;;;;8.40;6.35;;;20.50;73.70;;;;;;5057013;27;95310;-68
2022/03/26 13:09:38;;;;;;;10.10;6.88;;;20.50;73.60;;;;;;5051128;27;95461;-70
2022/03/26 13:12:22;;;;;;;6.45;5.63;;;20.50;73.50;;;;;;5058032;27;95324;-64
2022/03/26 13:14:54;;;;;;;6.95;5.35;;;20.50;73.60;;;;;;5055880;27;95782;-70
2022/03/26 13:17:25;;;;;;;9.02;5.95;;;20.50;73.50;;;;;;5026679;27;96051;-69
2022/03/26 13:20:02;;;;;;;6.95;5.15;;;20.50;73.50;;;;;;5060552;27;95232;-66
2022/03/26 13:22:36;;;;;;;7.40;5.90;;;20.50;73.50;;;;;;5063405;27;95696;-70
2022/03/26 13:25:07;;;;;;;9.57;6.53;;;20.50;73.40;;;;;;5058476;27;95845;-70
2022/03/26 13:27:47;;;;;;;6.50;5.90;;;20.50;73.30;;;;;;5046604;27;96831;-65
2022/03/26 13:30:18;;;;;;;;;;;20.50;74.00;;;;;;5060183;27;95830;-69